Time;durP1;ratioP1;P1;durP2;ratioP2;P2;SDS_P1;SDS_P2;PMS_P1;PMS_P2;Temp;Humidity;BMP_temperature;BMP_pressure;BME280_temperature;BME280_humidity;BME280_pressure;Samples;Min_cycle;Max_cycle;Signal;HPM_P1;HPM_P2
2022/04/22 00:00:29;;;;;;;6.13;5.60;;;;;;;-141.48;100.00;69781.59;5232152;28;20090;-81
2022/04/22 00:02:59;;;;;;;5.78;5.22;;;;;;;-141.48;100.00;69781.59;5250449;28;20401;-81
2022/04/22 00:05:30;;;;;;;5.15;4.75;;;;;;;-141.48;100.00;69781.59;5232192;28;20028;-82
2022/04/22 00:08:01;;;;;;;6.78;6.15;;;;;;;-141.48;100.00;69781.59;5250325;28;20016;-82
2022/04/22 00:10:32;;;;;;;7.68;6.43;;;;;;;-141.48;100.00;69781.59;5248192;28;20606;-81
2022/04/22 00:13:03;;;;;;;6.68;6.05;;;;;;;-141.48;100.00;69781.59;5231163;28;20032;-82
2022/04/22 00:15:33;;;;;;;10.07;6.45;;;;;;;-141.48;100.00;69781.59;5230874;28;20135;-82
2022/04/22 00:18:04;;;;;;;9.20;7.20;;;;;;;-141.48;100.00;69781.59;5230992;28;20024;-81
2022/04/22 00:20:34;;;;;;;6.00;5.45;;;;;;;-141.48;100.00;69781.59;5249715;28;20087;-81
2022/04/22 00:23:04;;;;;;;7.78;7.07;;;;;;;-141.48;100.00;69781.59;5251609;28;20107;-81
2022/04/22 00:25:35;;;;;;;8.27;6.90;;;;;;;-141.48;100.00;69781.59;5251330;28;20028;-81
2022/04/22 00:28:06;;;;;;;6.28;5.88;;;;;;;-141.48;100.00;69781.59;5252712;28;20047;-81
2022/04/22 00:30:36;;;;;;;7.30;6.60;;;;;;;-141.48;100.00;69781.59;5252194;28;20027;-81
2022/04/22 00:33:07;;;;;;;8.85;7.00;;;;;;;-141.48;100.00;69781.59;5250266;28;20390;-81
2022/04/22 00:35:37;;;;;;;7.15;6.75;;;;;;;-141.48;100.00;69781.59;5248269;28;20021;-81
2022/04/22 00:38:08;;;;;;;13.52;7.68;;;;;;;-141.48;100.00;69781.59;5231227;28;20024;-81
2022/04/22 00:40:38;;;;;;;8.75;7.82;;;;;;;-141.48;100.00;69781.59;5248990;28;20035;-82
2022/04/22 00:43:23;;;;;;;7.55;6.82;;;;;;;-141.48;100.00;69781.59;5249345;28;20060;-81
2022/04/22 00:45:55;;;;;;;8.27;7.60;;;;;;;-141.48;100.00;69781.59;5249450;28;20029;-81
2022/04/22 00:48:25;;;;;;;7.60;6.90;;;;;;;-141.48;100.00;69781.59;5249494;28;20034;-81
2022/04/22 00:50:55;;;;;;;8.38;7.75;;;;;;;-141.48;100.00;69781.59;5249504;28;20016;-83
2022/04/22 00:53:26;;;;;;;7.68;7.07;;;;;;;-141.48;100.00;69781.59;5231430;28;20048;-81
2022/04/22 00:55:56;;;;;;;9.43;8.52;;;;;;;-141.48;100.00;69781.59;5231352;28;20052;-81
2022/04/22 00:58:27;;;;;;;9.77;7.65;;;;;;;-141.48;100.00;69781.59;5249447;28;20103;-83
2022/04/22 01:00:58;;;;;;;9.25;8.40;;;;;;;-141.48;100.00;69781.59;5231135;28;20039;-82
2022/04/22 01:03:28;;;;;;;9.43;8.82;;;;;;;-141.48;100.00;69781.59;5249049;28;20047;-81
2022/04/22 01:11:39;;;;;;;8.48;7.68;;;;;;;-141.48;100.00;69781.59;5249769;28;20039;-83
2022/04/22 01:14:10;;;;;;;10.88;10.13;;;;;;;-141.48;100.00;69781.59;5249123;28;20028;-83
2022/04/22 01:16:40;;;;;;;8.80;8.10;;;;;;;-141.48;100.00;69781.59;5249139;28;20023;-82
2022/04/22 01:19:11;;;;;;;11.98;10.77;;;;;;;-141.48;100.00;69781.59;5249144;28;20033;-83
2022/04/22 01:21:41;;;;;;;10.93;9.82;;;;;;;-141.48;100.00;69781.59;5249376;28;20119;-82
2022/04/22 01:24:11;;;;;;;10.45;9.50;;;;;;;-141.48;100.00;69781.59;5231233;28;20020;-82
2022/04/22 01:26:44;;;;;;;10.50;9.60;;;;;;;-141.48;100.00;69781.59;5249877;28;20416;-82
2022/04/22 01:29:15;;;;;;;11.48;10.30;;;;;;;-141.48;100.00;69781.59;5249801;28;20055;-81
2022/04/22 01:31:45;;;;;;;19.80;10.00;;;;;;;-141.48;100.00;69781.59;5250216;28;20021;-82
2022/04/22 01:34:16;;;;;;;10.55;9.80;;;;;;;-141.48;100.00;69781.59;5249692;28;20040;-82
2022/04/22 01:36:46;;;;;;;10.57;9.77;;;;;;;-141.48;100.00;69781.59;5250983;28;20504;-83
2022/04/22 01:39:17;;;;;;;10.80;9.80;;;;;;;-141.48;100.00;69781.59;5252345;28;20055;-81
2022/04/22 01:41:47;;;;;;;9.77;8.95;;;;;;;-141.48;100.00;69781.59;5251747;28;20054;-83
2022/04/22 01:44:17;;;;;;;10.82;10.05;;;;;;;-141.48;100.00;69781.59;5252578;28;20066;-83
2022/04/22 01:46:48;;;;;;;10.10;9.40;;;;;;;-141.48;100.00;69781.59;5252489;28;20027;-83
2022/04/22 01:49:18;;;;;;;9.95;9.25;;;;;;;-141.48;100.00;69781.59;5258861;28;20261;-81
2022/04/22 01:51:48;;;;;;;12.38;11.48;;;;;;;-141.48;100.00;69781.59;5264140;28;20397;-81
2022/04/22 01:54:19;;;;;;;15.18;10.77;;;;;;;-141.48;100.00;69781.59;5246036;28;20025;-81
2022/04/22 01:56:50;;;;;;;11.00;10.00;;;;;;;-141.48;100.00;69781.59;5260541;28;20021;-82
2022/04/22 01:59:20;;;;;;;12.13;11.13;;;;;;;-141.48;100.00;69781.59;5232068;28;20056;-83
2022/04/22 02:01:51;;;;;;;11.13;10.25;;;;;;;-141.48;100.00;69781.59;5231848;28;20047;-82
2022/04/22 02:04:22;;;;;;;13.23;12.10;;;;;;;-141.48;100.00;69781.59;5249510;28;20028;-82
2022/04/22 02:06:52;;;;;;;12.60;11.70;;;;;;;-141.48;100.00;69781.59;5251708;28;20024;-82
2022/04/22 02:09:23;;;;;;;12.43;11.52;;;;;;;-141.48;100.00;69781.59;5260366;28;20439;-82
2022/04/22 02:11:53;;;;;;;12.48;11.45;;;;;;;-141.48;100.00;69781.59;5263487;28;20020;-83
2022/04/22 02:14:25;;;;;;;12.82;11.65;;;;;;;-141.48;100.00;69781.59;5261175;28;20027;-82
2022/04/22 02:16:58;;;;;;;11.25;10.45;;;;;;;-141.48;100.00;69781.59;5243133;28;20024;-81
2022/04/22 02:19:29;;;;;;;12.48;11.57;;;;;;;-141.48;100.00;69781.59;5256935;28;20467;-81
2022/04/22 02:21:59;;;;;;;13.43;12.43;;;;;;;-141.48;100.00;69781.59;5233066;28;20031;-83
2022/04/22 02:24:30;;;;;;;12.57;11.68;;;;;;;-141.48;100.00;69781.59;5249782;28;20024;-83
2022/04/22 02:29:49;;;;;;;13.18;11.95;;;;;;;-141.48;100.00;69781.59;5251232;28;20396;-80
2022/04/22 02:32:19;;;;;;;13.45;12.35;;;;;;;-141.48;100.00;69781.59;5233019;28;20025;-80
2022/04/22 02:34:50;;;;;;;14.00;12.95;;;;;;;-141.48;100.00;69781.59;5232957;28;20036;-81
2022/04/22 02:37:20;;;;;;;12.32;11.50;;;;;;;-141.48;100.00;69781.59;5250596;28;20024;-82
2022/04/22 02:39:51;;;;;;;13.77;12.60;;;;;;;-141.48;100.00;69781.59;5250595;28;20017;-81
2022/04/22 02:45:28;;;;;;;14.23;13.02;;;;;;;-141.48;100.00;69781.59;5250230;28;20039;-80
2022/04/22 02:47:59;;;;;;;14.23;13.02;;;;;;;-141.48;100.00;69781.59;5250682;28;20017;-81
2022/04/22 02:50:29;;;;;;;13.60;12.73;;;;;;;-141.48;100.00;69781.59;5251620;28;20021;-81
2022/04/22 02:52:59;;;;;;;15.27;14.15;;;;;;;-141.48;100.00;69781.59;5249981;28;20020;-81
2022/04/22 02:55:30;;;;;;;15.07;13.93;;;;;;;-141.48;100.00;69781.59;5250507;28;20491;-81
2022/04/22 02:58:00;;;;;;;13.48;12.32;;;;;;;-141.48;100.00;69781.59;5251220;28;20028;-81
2022/04/22 03:00:30;;;;;;;16.45;15.05;;;;;;;-141.48;100.00;69781.59;5265380;28;20020;-79
2022/04/22 03:03:02;;;;;;;16.73;15.32;;;;;;;-141.48;100.00;69781.59;5248430;28;20126;-79
2022/04/22 03:05:34;;;;;;;15.27;13.98;;;;;;;-141.48;100.00;69781.59;5265609;28;20092;-79
2022/04/22 03:08:05;;;;;;;15.48;14.27;;;;;;;-141.48;100.00;69781.59;5252544;28;20402;-82
2022/04/22 03:10:36;;;;;;;30.95;13.57;;;;;;;-141.48;100.00;69781.59;5250572;28;20111;-80
2022/04/22 03:13:06;;;;;;;14.80;13.70;;;;;;;-141.48;100.00;69781.59;5249472;28;20051;-81
2022/04/22 03:15:38;;;;;;;16.10;14.80;;;;;;;-141.48;100.00;69781.59;5248071;28;20013;-81
2022/04/22 03:18:09;;;;;;;16.75;15.27;;;;;;;-141.48;100.00;69781.59;5230885;28;20024;-81
2022/04/22 03:20:40;;;;;;;13.77;12.75;;;;;;;-141.48;100.00;69781.59;5248868;28;20028;-81
2022/04/22 03:23:10;;;;;;;16.40;14.95;;;;;;;-141.48;100.00;69781.59;5248513;28;20485;-79
2022/04/22 03:25:41;;;;;;;15.68;14.25;;;;;;;-141.48;100.00;69781.59;5248766;28;20154;-80
2022/04/22 03:28:11;;;;;;;15.10;14.02;;;;;;;-141.48;100.00;69781.59;5248654;28;20024;-81
2022/04/22 03:30:41;;;;;;;14.88;13.77;;;;;;;-141.48;100.00;69781.59;5248093;28;20028;-82
2022/04/22 03:33:12;;;;;;;20.77;15.90;;;;;;;-141.48;100.00;69781.59;5230017;28;20034;-81
2022/04/22 03:35:44;;;;;;;16.67;15.18;;;;;;;-141.48;100.00;69781.59;5249934;28;20048;-81
2022/04/22 03:38:14;;;;;;;18.67;17.00;;;;;;;-141.48;100.00;69781.59;5251136;28;20535;-82
2022/04/22 03:41:03;;;;;;;17.80;16.40;;;;;;;-141.48;100.00;69781.59;5251138;28;20028;-82
2022/04/22 03:43:34;;;;;;;17.08;15.63;;;;;;;-141.48;100.00;69781.59;5257181;22;20041;-79
2022/04/22 03:46:04;;;;;;;17.27;15.88;;;;;;;-141.48;100.00;69781.59;5237384;28;20092;-79
2022/04/22 03:48:34;;;;;;;19.00;17.45;;;;;;;-141.48;100.00;69781.59;5239191;28;20374;-78
2022/04/22 03:51:05;;;;;;;23.02;16.25;;;;;;;-141.48;100.00;69781.59;5239197;28;20320;-79
2022/04/22 03:53:39;;;;;;;17.60;16.17;;;;;;;-141.48;100.00;69781.59;5238780;28;20025;-80
2022/04/22 03:58:59;;;;;;;17.23;15.85;;;;;;;-141.48;100.00;69781.59;5239042;28;20032;-79
2022/04/22 04:01:29;;;;;;;19.48;18.02;;;;;;;-141.48;100.00;69781.59;5238981;28;20024;-80
2022/04/22 04:04:01;;;;;;;18.00;16.42;;;;;;;-141.48;100.00;69781.59;5237051;28;20053;-80
2022/04/22 04:06:31;;;;;;;15.77;14.52;;;;;;;-141.48;100.00;69781.59;5238906;28;20040;-80
2022/04/22 04:17:38;;;;;;;17.92;16.42;;;;;;;-141.48;100.00;69781.59;5240365;28;20059;-79
2022/04/22 04:23:17;;;;;;;16.98;15.48;;;;;;;-141.48;100.00;69781.59;5238752;28;20402;-80
2022/04/22 04:25:49;;;;;;;16.48;15.27;;;;;;;-141.48;100.00;69781.59;5238594;28;20059;-79
2022/04/22 04:28:23;;;;;;;18.85;17.05;;;;;;;-141.48;100.00;69781.59;5237822;28;20035;-80
2022/04/22 04:30:54;;;;;;;18.27;16.85;;;;;;;-141.48;100.00;69781.59;5238107;28;20375;-80
2022/04/22 04:33:25;;;;;;;19.13;17.58;;;;;;;-141.48;100.00;69781.59;5238384;28;20047;-80
2022/04/22 04:35:56;;;;;;;19.52;17.92;;;;;;;-141.48;100.00;69781.59;5238424;28;20029;-81
2022/04/22 04:38:27;;;;;;;15.98;14.73;;;;;;;-141.48;100.00;69781.59;5237968;28;20024;-81
2022/04/22 04:40:58;;;;;;;18.00;16.55;;;;;;;-141.48;100.00;69781.59;5238234;28;20537;-81
2022/04/22 04:43:29;;;;;;;18.27;16.42;;;;;;;-141.48;100.00;69781.59;5237533;28;20032;-80
2022/04/22 04:46:00;;;;;;;16.48;15.27;;;;;;;-141.48;100.00;69781.59;5237984;28;20048;-80
2022/04/22 04:48:59;;;;;;;20.80;18.15;;;;;;;-141.48;100.00;69781.59;5238651;28;20025;-81
2022/04/22 04:51:29;;;;;;;19.40;17.35;;;;;;;-141.48;100.00;69781.59;5234852;28;20411;-79
2022/04/22 04:54:00;;;;;;;19.42;17.92;;;;;;;-141.48;100.00;69781.59;5237824;28;20020;-81
2022/04/22 04:56:30;;;;;;;19.05;17.02;;;;;;;-141.48;100.00;69781.59;5237758;28;20387;-82
2022/04/22 04:59:01;;;;;;;27.42;20.52;;;;;;;-141.48;100.00;69781.59;5238419;28;20091;-81
2022/04/22 05:01:32;;;;;;;19.85;18.05;;;;;;;-141.48;100.00;69781.59;5238126;28;20094;-81
2022/04/22 05:04:02;;;;;;;19.95;18.27;;;;;;;-141.48;100.00;69781.59;5235182;28;20023;-82
2022/04/22 05:06:33;;;;;;;19.30;16.20;;;;;;;-141.48;100.00;69781.59;5238988;28;20025;-81
2022/04/22 05:09:03;;;;;;;18.25;16.75;;;;;;;-141.48;100.00;69781.59;5240842;28;20085;-81
2022/04/22 05:11:34;;;;;;;19.30;17.52;;;;;;;-141.48;100.00;69781.59;5240619;28;20024;-82
2022/04/22 05:14:04;;;;;;;16.90;15.60;;;;;;;-141.48;100.00;69781.59;5238879;28;20420;-81
2022/04/22 05:16:44;;;;;;;17.33;15.85;;;;;;;-141.48;100.00;69781.59;5239202;28;20021;-82
2022/04/22 05:19:14;;;;;;;19.35;16.45;;;;;;;-141.48;100.00;69781.59;5237266;28;20481;-82
2022/04/22 05:21:44;;;;;;;18.35;16.73;;;;;;;-141.48;100.00;69781.59;5237456;28;20017;-83
2022/04/22 05:24:15;;;;;;;18.42;16.60;;;;;;;-141.48;100.00;69781.59;5239181;28;20493;-82
2022/04/22 05:26:46;;;;;;;24.40;17.40;;;;;;;-141.48;100.00;69781.59;5239112;28;20089;-81
2022/04/22 05:35:03;;;;;;;18.20;16.55;;;;;;;-141.48;100.00;69781.59;5237473;28;20031;-82
2022/04/22 05:37:50;;;;;;;17.92;16.65;;;;;;;-141.48;100.00;69781.59;5237070;28;20502;-81
2022/04/22 05:40:24;;;;;;;19.60;17.58;;;;;;;-141.48;100.00;69781.59;5239906;28;20025;-81
2022/04/22 05:42:55;;;;;;;17.05;15.45;;;;;;;-141.48;100.00;69781.59;5240922;28;20075;-82
2022/04/22 05:45:27;;;;;;;17.45;15.93;;;;;;;-141.48;100.00;69781.59;5244199;28;20308;-81
2022/04/22 05:47:58;;;;;;;18.08;16.70;;;;;;;-141.48;100.00;69781.59;5240719;28;20031;-83
2022/04/22 05:50:29;;;;;;;19.23;17.45;;;;;;;-141.48;100.00;69781.59;5239458;28;20048;-80
2022/04/22 05:53:00;;;;;;;18.33;16.83;;;;;;;-141.48;100.00;69781.59;5237296;28;20078;-81
2022/04/22 05:55:30;;;;;;;18.23;16.58;;;;;;;-141.48;100.00;69781.59;5237288;28;20025;-81
2022/04/22 05:58:01;;;;;;;18.33;16.40;;;;;;;-141.48;100.00;69781.59;5237541;28;20028;-80
2022/04/22 06:00:32;;;;;;;17.77;16.23;;;;;;;-141.48;100.00;69781.59;5239751;28;20041;-82
2022/04/22 06:03:02;;;;;;;19.25;17.23;;;;;;;-141.48;100.00;69781.59;5238748;28;20108;-81
2022/04/22 06:05:33;;;;;;;16.67;15.23;;;;;;;-141.48;100.00;69781.59;5238305;28;20499;-80
2022/04/22 06:10:56;;;;;;;18.55;16.83;;;;;;;-141.48;100.00;69781.59;5239123;28;20037;-81
2022/04/22 06:13:27;;;;;;;16.30;14.57;;;;;;;-141.48;100.00;69781.59;5240465;28;20029;-80
2022/04/22 06:15:58;;;;;;;19.67;16.90;;;;;;;-141.48;100.00;69781.59;5238510;28;20055;-79
2022/04/22 06:18:28;;;;;;;18.83;16.90;;;;;;;-141.48;100.00;69781.59;5239582;28;20390;-79
2022/04/22 06:20:59;;;;;;;16.42;14.88;;;;;;;-141.48;100.00;69781.59;5238798;28;20078;-80
2022/04/22 06:23:29;;;;;;;20.23;18.60;;;;;;;-141.48;100.00;69781.59;5239204;28;20028;-80
2022/04/22 06:25:59;;;;;;;18.25;16.40;;;;;;;-141.48;100.00;69781.59;5239996;28;20025;-79
2022/04/22 06:28:30;;;;;;;17.58;16.23;;;;;;;-141.48;100.00;69781.59;5240323;28;20075;-80
2022/04/22 06:31:01;;;;;;;19.58;17.55;;;;;;;-141.48;100.00;69781.59;5241668;28;20021;-79
2022/04/22 06:33:32;;;;;;;16.98;15.73;;;;;;;-141.48;100.00;69781.59;5239766;28;20089;-79
2022/04/22 06:36:05;;;;;;;18.75;16.52;;;;;;;-141.48;100.00;69781.59;5241219;28;20402;-80
2022/04/22 06:38:36;;;;;;;17.55;16.05;;;;;;;-141.48;100.00;69781.59;5240731;28;20017;-80
2022/04/22 06:46:47;;;;;;;19.00;17.10;;;;;;;-141.48;100.00;69781.59;5238220;28;20056;-81
2022/04/22 06:49:18;;;;;;;18.23;16.42;;;;;;;-141.48;100.00;69781.59;5237320;28;20029;-81
2022/04/22 06:51:48;;;;;;;16.15;14.82;;;;;;;-141.48;100.00;69781.59;5237793;28;20470;-81
2022/04/22 06:54:19;;;;;;;20.48;18.40;;;;;;;-141.48;100.00;69781.59;5235396;28;20108;-82
2022/04/22 06:56:50;;;;;;;18.48;16.98;;;;;;;-141.48;100.00;69781.59;5236735;28;20021;-81
2022/04/22 06:59:22;;;;;;;19.08;17.48;;;;;;;-141.48;100.00;69781.59;5237002;28;20059;-80
2022/04/22 07:01:54;;;;;;;19.60;17.85;;;;;;;-141.48;100.00;69781.59;5234743;28;20025;-82
2022/04/22 07:04:28;;;;;;;16.45;15.00;;;;;;;-141.48;100.00;69781.59;5233023;28;20036;-81
2022/04/22 07:06:58;;;;;;;16.20;14.55;;;;;;;-141.48;100.00;69781.59;5235335;28;20074;-82
2022/04/22 07:09:30;;;;;;;18.27;16.77;;;;;;;-141.48;100.00;69781.59;5235334;28;20025;-80
2022/04/22 07:12:02;;;;;;;17.25;15.65;;;;;;;-141.48;100.00;69781.59;5235230;28;20128;-81
2022/04/22 07:14:34;;;;;;;18.55;16.83;;;;;;;-141.48;100.00;69781.59;5236239;28;20025;-82
2022/04/22 07:17:04;;;;;;;18.10;16.30;;;;;;;-141.48;100.00;69781.59;5235550;28;20029;-80
2022/04/22 07:19:35;;;;;;;19.40;18.00;;;;;;;-141.48;100.00;69781.59;5238730;28;20083;-82
2022/04/22 07:22:06;;;;;;;17.05;15.73;;;;;;;-141.48;100.00;69781.59;5240587;28;20074;-81
2022/04/22 07:24:37;;;;;;;17.25;15.82;;;;;;;-141.48;100.00;69781.59;5241858;28;20048;-82
2022/04/22 07:27:07;;;;;;;18.45;16.63;;;;;;;-141.48;100.00;69781.59;5243339;28;20017;-82
2022/04/22 07:29:38;;;;;;;20.73;18.98;;;;;;;-141.48;100.00;69781.59;5241701;28;20032;-80
2022/04/22 07:32:09;;;;;;;20.35;18.10;;;;;;;-141.48;100.00;69781.59;5241158;28;20067;-81
2022/04/22 07:34:40;;;;;;;17.65;16.08;;;;;;;-141.48;100.00;69781.59;5245227;28;20021;-82
2022/04/22 07:37:12;;;;;;;18.55;16.17;;;;;;;-141.48;100.00;69781.59;5244409;28;20031;-82
2022/04/22 07:39:43;;;;;;;15.77;14.38;;;;;;;-141.48;100.00;69781.59;5244271;28;20024;-82
2022/04/22 07:42:17;;;;;;;19.55;17.88;;;;;;;-141.48;100.00;69781.59;5242818;28;20033;-82
2022/04/22 07:47:38;;;;;;;;;;;;;;;-141.48;100.00;69781.59;5240853;28;20040;-83
2022/04/22 07:50:09;;;;;;;17.17;15.90;;;;;;;-141.48;100.00;69781.59;5239471;28;19909;-81
2022/04/22 07:52:44;;;;;;;17.80;16.20;;;;;;;-141.48;100.00;69781.59;5241620;28;20017;-81
2022/04/22 07:55:14;;;;;;;23.33;15.40;;;;;;;-141.48;100.00;69781.59;5240907;28;20025;-82
2022/04/22 07:57:46;;;;;;;19.40;17.25;;;;;;;-141.48;100.00;69781.59;5242091;28;20521;-82
2022/04/22 08:00:17;;;;;;;17.52;16.00;;;;;;;-141.48;100.00;69781.59;5243751;28;20025;-82
2022/04/22 08:02:47;;;;;;;16.67;15.18;;;;;;;-141.48;100.00;69781.59;5245090;28;20082;-82
2022/04/22 08:05:17;;;;;;;16.40;14.90;;;;;;;-141.48;100.00;69781.59;5242563;28;20029;-82
2022/04/22 08:07:48;;;;;;;18.20;16.58;;;;;;;-141.48;100.00;69781.59;5238673;28;20028;-86
2022/04/22 08:10:19;;;;;;;17.05;15.13;;;;;;;-141.48;100.00;69781.59;5221210;28;20029;-85
2022/04/22 08:12:50;;;;;;;14.43;12.45;;;;;;;-141.48;100.00;69781.59;5219760;28;20026;-83
2022/04/22 08:15:21;;;;;;;15.52;13.30;;;;;;;-141.48;100.00;69781.59;5218242;28;20031;-84
2022/04/22 08:17:51;;;;;;;15.00;13.68;;;;;;;-141.48;100.00;69781.59;5218471;28;20112;-83
2022/04/22 08:20:22;;;;;;;13.50;12.30;;;;;;;-141.48;100.00;69781.59;5219322;28;20038;-83
2022/04/22 08:22:52;;;;;;;16.17;14.63;;;;;;;-141.48;100.00;69781.59;5217202;28;20021;-83
2022/04/22 08:25:23;;;;;;;14.40;12.98;;;;;;;-141.48;100.00;69781.59;5217628;28;20041;-82
2022/04/22 08:27:53;;;;;;;18.92;13.52;;;;;;;-141.48;100.00;69781.59;5216855;28;20030;-83
2022/04/22 08:30:26;;;;;;;15.40;13.82;;;;;;;-141.48;100.00;69781.59;5217468;28;20028;-83
2022/04/22 08:32:56;;;;;;;15.25;12.68;;;;;;;-141.48;100.00;69781.59;5217128;28;20433;-82
2022/04/22 08:35:28;;;;;;;17.75;14.65;;;;;;;-141.48;100.00;69781.59;5216724;28;20040;-83
2022/04/22 08:38:01;;;;;;;15.38;13.80;;;;;;;-141.48;100.00;69781.59;5222731;28;20029;-83
2022/04/22 08:40:34;;;;;;;14.13;12.27;;;;;;;-141.48;100.00;69781.59;5237262;28;20044;-83
2022/04/22 08:43:06;;;;;;;15.43;13.98;;;;;;;-141.48;100.00;69781.59;5237481;28;20186;-81
2022/04/22 08:45:37;;;;;;;14.40;13.30;;;;;;;-141.48;100.00;69781.59;5239227;28;20028;-80
2022/04/22 08:50:58;;;;;;;13.52;12.40;;;;;;;-141.48;100.00;69781.59;5239717;28;20047;-83
2022/04/22 08:53:29;;;;;;;13.68;12.45;;;;;;;-141.48;100.00;69781.59;5240184;28;20032;-82
2022/04/22 08:56:02;;;;;;;24.33;14.13;;;;;;;-141.48;100.00;69781.59;5240860;28;20021;-82
2022/04/22 08:58:33;;;;;;;15.65;14.07;;;;;;;-141.48;100.00;69781.59;5238841;28;20104;-82
2022/04/22 09:01:04;;;;;;;13.60;12.50;;;;;;;-141.48;100.00;69781.59;5238305;28;20156;-82
2022/04/22 09:03:35;;;;;;;13.77;12.55;;;;;;;-141.48;100.00;69781.59;5238473;28;20028;-82
2022/04/22 09:06:05;;;;;;;15.05;13.70;;;;;;;-141.48;100.00;69781.59;5236953;28;20029;-83
2022/04/22 09:08:36;;;;;;;15.70;14.07;;;;;;;-141.48;100.00;69781.59;5238590;28;20089;-83
2022/04/22 09:11:07;;;;;;;14.80;13.50;;;;;;;-141.48;100.00;69781.59;5237758;28;20021;-83
2022/04/22 09:13:37;;;;;;;16.20;14.68;;;;;;;-141.48;100.00;69781.59;5239222;28;20051;-82
2022/04/22 09:16:18;;;;;;;15.52;13.85;;;;;;;-141.48;100.00;69781.59;5237974;28;20020;-82
2022/04/22 09:18:59;;;;;;;16.60;14.23;;;;;;;-141.48;100.00;69781.59;5236859;28;20029;-82
2022/04/22 09:21:32;;;;;;;17.35;15.55;;;;;;;-141.48;100.00;69781.59;5239823;28;20029;-82
2022/04/22 09:24:13;;;;;;;19.35;17.85;;;;;;;-141.48;100.00;69781.59;5243233;28;20071;-84
2022/04/22 09:26:44;;;;;;;19.23;17.42;;;;;;;-141.48;100.00;69781.59;5245143;28;20029;-81
2022/04/22 09:29:15;;;;;;;18.77;17.05;;;;;;;-141.48;100.00;69781.59;5243649;28;20093;-81
2022/04/22 09:31:49;;;;;;;17.33;16.00;;;;;;;-141.48;100.00;69781.59;5237773;28;20031;-82
2022/04/22 09:34:39;;;;;;;13.82;12.48;;;;;;;-141.48;100.00;69781.59;5236298;28;20398;-82
2022/04/22 09:43:21;;;;;;;17.75;16.17;;;;;;;-141.48;100.00;69781.59;5226961;22;20030;-56
2022/04/22 09:45:53;;;;;;;22.08;17.60;;;;;;;-141.48;100.00;69781.59;5184759;28;20329;-56
2022/04/22 09:48:24;;;;;;;19.10;17.33;;;;;;;-141.48;100.00;69781.59;5187478;28;20018;-56
2022/04/22 09:50:56;;;;;;;19.60;17.98;;;;;;;-141.48;100.00;69781.59;5187326;28;20032;-55
2022/04/22 09:53:34;;;;;;;18.17;16.73;;;;;;;-141.48;100.00;69781.59;5186896;28;20021;-58
2022/04/22 09:56:09;;;;;;;16.60;15.25;;;;;;;-141.48;100.00;69781.59;5187121;28;20083;-57
2022/04/22 09:58:39;;;;;;;14.88;13.57;;;;;;;-141.48;100.00;69781.59;5187237;28;20029;-56
2022/04/22 10:01:10;;;;;;;14.18;13.00;;;;;;;-141.48;100.00;69781.59;5187312;28;20036;-57
2022/04/22 10:03:41;;;;;;;13.32;12.02;;;;;;;-141.48;100.00;69781.59;5186822;28;20180;-58
2022/04/22 10:06:12;;;;;;;12.18;11.27;;;;;;;-141.48;100.00;69781.59;5187033;28;20037;-57
2022/04/22 10:08:46;;;;;;;12.85;11.35;;;;;;;-141.48;100.00;69781.59;5187051;28;20029;-57
2022/04/22 10:11:17;;;;;;;11.20;10.32;;;;;;;-141.48;100.00;69781.59;5186854;28;20028;-56
2022/04/22 10:13:49;;;;;;;12.27;11.18;;;;;;;-141.48;100.00;69781.59;5186571;28;20379;-57
2022/04/22 10:16:19;;;;;;;16.48;9.95;;;;;;;-141.48;100.00;69781.59;5186973;28;20017;-56
2022/04/22 10:18:51;;;;;;;13.20;12.05;;;;;;;-141.48;100.00;69781.59;5186602;28;20107;-59
2022/04/22 10:21:23;;;;;;;19.05;13.85;;;;;;;-141.48;100.00;69781.59;5204767;28;20045;-59
2022/04/22 10:23:56;;;;;;;12.93;11.95;;;;;;;-141.48;100.00;69781.59;5186449;28;20026;-57
2022/04/22 10:26:27;;;;;;;14.40;13.00;;;;;;;-141.48;100.00;69781.59;5186827;28;20108;-57
2022/04/22 10:28:58;;;;;;;14.35;13.15;;;;;;;-141.48;100.00;69781.59;5186734;28;20031;-58
2022/04/22 10:31:29;;;;;;;12.70;11.32;;;;;;;-141.48;100.00;69781.59;5204346;28;20026;-59
2022/04/22 10:34:08;;;;;;;14.88;13.52;;;;;;;-141.48;100.00;69781.59;5186513;28;20039;-59
2022/04/22 10:36:40;;;;;;;12.80;11.70;;;;;;;-141.48;100.00;69781.59;5186717;28;20045;-59
2022/04/22 10:39:30;;;;;;;13.35;12.25;;;;;;;-141.48;100.00;69781.59;5186559;28;20112;-59
2022/04/22 10:42:01;;;;;;;13.90;12.80;;;;;;;-141.48;100.00;69781.59;5186601;28;20025;-59
2022/04/22 10:47:39;;;;;;;15.43;13.88;;;;;;;-141.48;100.00;69781.59;5204768;28;20033;-59
2022/04/22 10:50:39;;;;;;;12.75;11.65;;;;;;;-141.48;100.00;69781.59;5186212;28;20116;-58
2022/04/22 10:53:25;;;;;;;13.48;12.05;;;;;;;-141.48;100.00;69781.59;5186648;28;20056;-59
2022/04/22 10:56:27;;;;;;;13.60;12.80;;;;;;;-141.48;100.00;69781.59;5191011;28;20021;-59
2022/04/22 10:59:15;;;;;;;12.95;11.70;;;;;;;-141.48;100.00;69781.59;5190930;28;20116;-58
2022/04/22 11:01:47;;;;;;;12.15;11.18;;;;;;;-141.48;100.00;69781.59;5190704;28;20390;-58
2022/04/22 11:04:29;;;;;;;13.43;12.50;;;;;;;-141.48;100.00;69781.59;5190102;28;20032;-58
2022/04/22 11:06:59;;;;;;;12.77;11.63;;;;;;;-141.48;100.00;69781.59;5190567;28;20034;-57
2022/04/22 11:09:30;;;;;;;12.45;11.23;;;;;;;-141.48;100.00;69781.59;5190386;28;20020;-57
2022/04/22 11:12:01;;;;;;;15.50;13.98;;;;;;;-141.48;100.00;69781.59;5208711;28;20414;-57
2022/04/22 11:14:44;;;;;;;12.05;11.30;;;;;;;-141.48;100.00;69781.59;5189879;28;20052;-58
2022/04/22 11:17:45;;;;;;;13.27;12.05;;;;;;;-141.48;100.00;69781.59;5190159;28;20033;-56
2022/04/22 11:20:15;;;;;;;11.32;10.43;;;;;;;-141.48;100.00;69781.59;5188478;28;20417;-57
2022/04/22 11:22:59;;;;;;;13.48;11.02;;;;;;;-141.48;100.00;69781.59;5190272;28;20036;-57
2022/04/22 11:25:30;;;;;;;13.07;11.82;;;;;;;-141.48;100.00;69781.59;5189638;28;20033;-58
2022/04/22 11:28:02;;;;;;;14.23;12.98;;;;;;;-141.48;100.00;69781.59;5190560;28;20026;-59
2022/04/22 11:30:33;;;;;;;12.85;11.95;;;;;;;-141.48;100.00;69781.59;5190043;28;20018;-58
2022/04/22 11:33:23;;;;;;;13.68;12.57;;;;;;;-141.48;100.00;69781.59;5189763;28;20032;-59
2022/04/22 11:35:56;;;;;;;;;;;;;;;-141.48;100.00;69781.59;5190326;28;20111;-59
2022/04/22 11:38:28;;;;;;;13.75;12.65;;;;;;;-141.48;100.00;69781.59;5189880;28;20327;-57
2022/04/22 11:40:59;;;;;;;15.88;14.75;;;;;;;-141.48;100.00;69781.59;5190078;28;20017;-58
2022/04/22 11:43:29;;;;;;;15.98;14.45;;;;;;;-141.48;100.00;69781.59;5189257;28;20040;-58
2022/04/22 11:46:00;;;;;;;14.32;13.20;;;;;;;-141.48;100.00;69781.59;5189808;28;20487;-59
2022/04/22 11:48:30;;;;;;;16.38;14.80;;;;;;;-141.48;100.00;69781.59;5189597;28;20028;-57
2022/04/22 11:51:01;;;;;;;13.50;12.43;;;;;;;-141.48;100.00;69781.59;5189701;28;20374;-57
2022/04/22 11:53:34;;;;;;;13.90;12.85;;;;;;;-141.48;100.00;69781.59;5189280;28;20029;-58
2022/04/22 11:56:05;;;;;;;14.10;13.10;;;;;;;-141.48;100.00;69781.59;5189563;28;20056;-56
2022/04/22 11:58:35;;;;;;;11.70;10.88;;;;;;;-141.48;100.00;69781.59;5189556;28;20060;-56
2022/04/22 12:06:43;;;;;;;15.77;14.55;;;;;;;-141.48;100.00;69781.59;5206239;28;20084;-58
2022/04/22 12:09:15;;;;;;;15.73;14.52;;;;;;;-141.48;100.00;69781.59;5189060;28;20382;-58
2022/04/22 12:11:45;;;;;;;14.73;13.55;;;;;;;-141.48;100.00;69781.59;5189484;28;20053;-58
2022/04/22 12:14:27;;;;;;;13.38;12.50;;;;;;;-141.48;100.00;69781.59;5188992;28;20477;-58
2022/04/22 12:17:02;;;;;;;16.70;15.15;;;;;;;-141.48;100.00;69781.59;5189159;28;20485;-58
2022/04/22 12:19:33;;;;;;;13.75;12.55;;;;;;;-141.48;100.00;69781.59;5188845;28;20075;-59